sensor_id;sensor_type;location;lat;lon;timestamp;P1;durP1;ratioP1;P2;durP2;ratioP2
54853;SDS011;40747;49.480;8.658;2024-03-22T00:01:50;6.97;;;1.83;;
54853;SDS011;40747;49.480;8.658;2024-03-22T00:04:16;2.33;;;1.88;;
54853;SDS011;40747;49.480;8.658;2024-03-22T00:06:42;1.38;;;1.20;;
54853;SDS011;40747;49.480;8.658;2024-03-22T00:09:08;6.70;;;2.78;;
54853;SDS011;40747;49.480;8.658;2024-03-22T00:11:34;2.90;;;1.73;;
54853;SDS011;40747;49.480;8.658;2024-03-22T00:14:00;4.20;;;2.17;;
54853;SDS011;40747;49.480;8.658;2024-03-22T00:16:26;4.70;;;2.47;;
54853;SDS011;40747;49.480;8.658;2024-03-22T00:18:52;3.17;;;2.15;;
54853;SDS011;40747;49.480;8.658;2024-03-22T00:21:17;3.28;;;2.20;;
54853;SDS011;40747;49.480;8.658;2024-03-22T00:23:43;3.47;;;2.05;;
54853;SDS011;40747;49.480;8.658;2024-03-22T00:26:08;2.88;;;2.08;;
54853;SDS011;40747;49.480;8.658;2024-03-22T00:28:33;2.90;;;2.08;;
54853;SDS011;40747;49.480;8.658;2024-03-22T00:30:59;4.30;;;2.10;;
54853;SDS011;40747;49.480;8.658;2024-03-22T00:33:24;2.67;;;1.88;;
54853;SDS011;40747;49.480;8.658;2024-03-22T00:35:49;3.38;;;1.83;;
54853;SDS011;40747;49.480;8.658;2024-03-22T00:38:15;3.00;;;1.60;;
54853;SDS011;40747;49.480;8.658;2024-03-22T00:40:40;3.20;;;2.22;;
54853;SDS011;40747;49.480;8.658;2024-03-22T00:43:06;3.35;;;1.90;;
54853;SDS011;40747;49.480;8.658;2024-03-22T00:45:31;3.17;;;2.20;;
54853;SDS011;40747;49.480;8.658;2024-03-22T00:47:56;3.88;;;2.60;;
54853;SDS011;40747;49.480;8.658;2024-03-22T00:50:22;5.35;;;2.58;;
54853;SDS011;40747;49.480;8.658;2024-03-22T00:52:47;5.05;;;2.40;;
54853;SDS011;40747;49.480;8.658;2024-03-22T00:55:12;4.07;;;2.13;;
54853;SDS011;40747;49.480;8.658;2024-03-22T00:57:38;5.60;;;1.90;;
54853;SDS011;40747;49.480;8.658;2024-03-22T01:00:03;4.05;;;2.50;;
54853;SDS011;40747;49.480;8.658;2024-03-22T01:02:29;3.75;;;2.25;;
54853;SDS011;40747;49.480;8.658;2024-03-22T01:04:55;4.60;;;2.42;;
54853;SDS011;40747;49.480;8.658;2024-03-22T01:07:20;3.63;;;2.45;;
54853;SDS011;40747;49.480;8.658;2024-03-22T01:09:45;4.03;;;2.42;;
54853;SDS011;40747;49.480;8.658;2024-03-22T01:12:10;3.72;;;2.38;;
54853;SDS011;40747;49.480;8.658;2024-03-22T01:14:36;6.10;;;1.90;;
54853;SDS011;40747;49.480;8.658;2024-03-22T01:17:01;3.25;;;1.85;;
54853;SDS011;40747;49.480;8.658;2024-03-22T01:19:26;4.30;;;1.95;;
54853;SDS011;40747;49.480;8.658;2024-03-22T01:21:52;4.50;;;2.50;;
54853;SDS011;40747;49.480;8.658;2024-03-22T01:24:17;3.75;;;2.13;;
54853;SDS011;40747;49.480;8.658;2024-03-22T01:26:42;2.28;;;1.75;;
54853;SDS011;40747;49.480;8.658;2024-03-22T01:29:08;4.50;;;2.33;;
54853;SDS011;40747;49.480;8.658;2024-03-22T01:31:33;5.03;;;2.60;;
54853;SDS011;40747;49.480;8.658;2024-03-22T01:33:58;3.47;;;2.28;;
54853;SDS011;40747;49.480;8.658;2024-03-22T01:36:23;5.80;;;2.78;;
54853;SDS011;40747;49.480;8.658;2024-03-22T01:38:49;5.75;;;3.17;;
54853;SDS011;40747;49.480;8.658;2024-03-22T01:41:14;3.85;;;2.92;;
54853;SDS011;40747;49.480;8.658;2024-03-22T01:43:39;4.50;;;2.90;;
54853;SDS011;40747;49.480;8.658;2024-03-22T01:46:05;3.03;;;2.55;;
54853;SDS011;40747;49.480;8.658;2024-03-22T01:48:32;4.18;;;2.20;;
54853;SDS011;40747;49.480;8.658;2024-03-22T01:50:58;3.65;;;1.80;;
54853;SDS011;40747;49.480;8.658;2024-03-22T01:53:24;5.10;;;2.97;;
54853;SDS011;40747;49.480;8.658;2024-03-22T01:55:49;8.10;;;3.88;;
54853;SDS011;40747;49.480;8.658;2024-03-22T01:58:15;6.93;;;3.58;;
54853;SDS011;40747;49.480;8.658;2024-03-22T02:00:41;4.40;;;2.17;;
54853;SDS011;40747;49.480;8.658;2024-03-22T02:03:06;6.45;;;2.67;;
54853;SDS011;40747;49.480;8.658;2024-03-22T02:05:32;6.40;;;2.65;;
54853;SDS011;40747;49.480;8.658;2024-03-22T02:07:57;4.90;;;2.67;;
54853;SDS011;40747;49.480;8.658;2024-03-22T02:10:22;6.03;;;3.47;;
54853;SDS011;40747;49.480;8.658;2024-03-22T02:12:47;5.53;;;3.47;;
54853;SDS011;40747;49.480;8.658;2024-03-22T02:15:13;3.33;;;1.52;;
54853;SDS011;40747;49.480;8.658;2024-03-22T02:17:38;4.15;;;2.38;;
54853;SDS011;40747;49.480;8.658;2024-03-22T02:20:03;7.38;;;3.30;;
54853;SDS011;40747;49.480;8.658;2024-03-22T02:22:30;5.47;;;2.67;;
54853;SDS011;40747;49.480;8.658;2024-03-22T02:24:55;5.78;;;2.83;;
54853;SDS011;40747;49.480;8.658;2024-03-22T02:27:21;6.70;;;2.50;;
54853;SDS011;40747;49.480;8.658;2024-03-22T02:29:46;4.93;;;3.33;;
54853;SDS011;40747;49.480;8.658;2024-03-22T02:32:11;6.68;;;3.58;;
54853;SDS011;40747;49.480;8.658;2024-03-22T02:34:37;7.05;;;2.88;;
54853;SDS011;40747;49.480;8.658;2024-03-22T02:37:02;5.68;;;2.92;;
54853;SDS011;40747;49.480;8.658;2024-03-22T02:39:27;6.95;;;3.25;;
54853;SDS011;40747;49.480;8.658;2024-03-22T02:41:53;8.65;;;3.75;;
54853;SDS011;40747;49.480;8.658;2024-03-22T02:44:19;3.55;;;2.72;;
54853;SDS011;40747;49.480;8.658;2024-03-22T02:46:44;7.65;;;4.07;;
54853;SDS011;40747;49.480;8.658;2024-03-22T02:49:09;5.78;;;2.40;;
54853;SDS011;40747;49.480;8.658;2024-03-22T02:51:35;4.07;;;2.75;;
54853;SDS011;40747;49.480;8.658;2024-03-22T02:54:00;2.85;;;1.77;;
54853;SDS011;40747;49.480;8.658;2024-03-22T02:56:27;7.85;;;4.07;;
54853;SDS011;40747;49.480;8.658;2024-03-22T02:58:52;7.85;;;3.60;;
54853;SDS011;40747;49.480;8.658;2024-03-22T03:01:17;5.90;;;3.70;;
54853;SDS011;40747;49.480;8.658;2024-03-22T03:03:43;7.03;;;3.72;;
54853;SDS011;40747;49.480;8.658;2024-03-22T03:06:08;6.10;;;2.83;;
54853;SDS011;40747;49.480;8.658;2024-03-22T03:08:34;5.15;;;2.95;;
54853;SDS011;40747;49.480;8.658;2024-03-22T03:10:59;8.73;;;3.47;;
54853;SDS011;40747;49.480;8.658;2024-03-22T03:13:25;5.18;;;2.95;;
54853;SDS011;40747;49.480;8.658;2024-03-22T03:15:51;5.78;;;2.63;;
54853;SDS011;40747;49.480;8.658;2024-03-22T03:18:16;4.93;;;2.35;;
54853;SDS011;40747;49.480;8.658;2024-03-22T03:20:41;7.53;;;2.90;;
54853;SDS011;40747;49.480;8.658;2024-03-22T03:23:06;5.45;;;2.70;;
54853;SDS011;40747;49.480;8.658;2024-03-22T03:25:32;8.00;;;3.40;;
54853;SDS011;40747;49.480;8.658;2024-03-22T03:27:57;5.25;;;2.83;;
54853;SDS011;40747;49.480;8.658;2024-03-22T03:30:22;8.25;;;2.85;;
54853;SDS011;40747;49.480;8.658;2024-03-22T03:32:47;8.25;;;4.15;;
54853;SDS011;40747;49.480;8.658;2024-03-22T03:35:13;6.53;;;2.03;;
54853;SDS011;40747;49.480;8.658;2024-03-22T03:37:38;5.90;;;3.30;;
54853;SDS011;40747;49.480;8.658;2024-03-22T03:40:03;7.82;;;3.33;;
54853;SDS011;40747;49.480;8.658;2024-03-22T03:42:29;10.07;;;5.00;;
54853;SDS011;40747;49.480;8.658;2024-03-22T03:44:54;11.25;;;4.03;;
54853;SDS011;40747;49.480;8.658;2024-03-22T03:47:20;5.97;;;3.25;;
54853;SDS011;40747;49.480;8.658;2024-03-22T03:49:45;6.32;;;2.60;;
54853;SDS011;40747;49.480;8.658;2024-03-22T03:52:11;11.25;;;3.80;;
54853;SDS011;40747;49.480;8.658;2024-03-22T03:54:36;6.93;;;2.25;;
54853;SDS011;40747;49.480;8.658;2024-03-22T03:57:02;5.72;;;3.08;;
54853;SDS011;40747;49.480;8.658;2024-03-22T03:59:27;5.70;;;3.72;;
54853;SDS011;40747;49.480;8.658;2024-03-22T04:01:52;6.50;;;3.30;;
54853;SDS011;40747;49.480;8.658;2024-03-22T04:04:17;4.28;;;2.50;;
54853;SDS011;40747;49.480;8.658;2024-03-22T04:06:45;8.70;;;3.65;;
54853;SDS011;40747;49.480;8.658;2024-03-22T04:09:11;4.60;;;2.50;;
54853;SDS011;40747;49.480;8.658;2024-03-22T04:11:36;7.65;;;2.85;;
54853;SDS011;40747;49.480;8.658;2024-03-22T04:14:02;4.05;;;2.22;;
54853;SDS011;40747;49.480;8.658;2024-03-22T04:16:28;8.02;;;3.45;;
54853;SDS011;40747;49.480;8.658;2024-03-22T04:18:53;3.65;;;2.03;;
54853;SDS011;40747;49.480;8.658;2024-03-22T04:21:18;6.28;;;3.05;;
54853;SDS011;40747;49.480;8.658;2024-03-22T04:23:44;6.78;;;3.65;;
54853;SDS011;40747;49.480;8.658;2024-03-22T04:26:09;5.45;;;2.63;;
54853;SDS011;40747;49.480;8.658;2024-03-22T04:28:34;7.53;;;3.50;;
54853;SDS011;40747;49.480;8.658;2024-03-22T04:31:00;5.13;;;2.78;;
54853;SDS011;40747;49.480;8.658;2024-03-22T04:33:27;5.15;;;3.63;;
54853;SDS011;40747;49.480;8.658;2024-03-22T04:35:54;5.28;;;3.50;;
54853;SDS011;40747;49.480;8.658;2024-03-22T04:38:19;6.05;;;2.80;;
54853;SDS011;40747;49.480;8.658;2024-03-22T04:40:45;5.03;;;2.92;;
54853;SDS011;40747;49.480;8.658;2024-03-22T04:43:10;2.92;;;2.15;;
54853;SDS011;40747;49.480;8.658;2024-03-22T04:45:36;8.00;;;4.35;;
54853;SDS011;40747;49.480;8.658;2024-03-22T04:48:01;4.47;;;2.72;;
54853;SDS011;40747;49.480;8.658;2024-03-22T04:50:28;10.15;;;2.92;;
54853;SDS011;40747;49.480;8.658;2024-03-22T04:52:54;8.02;;;3.45;;
54853;SDS011;40747;49.480;8.658;2024-03-22T04:55:19;4.90;;;3.20;;
54853;SDS011;40747;49.480;8.658;2024-03-22T04:57:44;9.07;;;3.42;;
54853;SDS011;40747;49.480;8.658;2024-03-22T05:00:10;5.25;;;3.05;;
54853;SDS011;40747;49.480;8.658;2024-03-22T05:02:35;7.90;;;3.70;;
54853;SDS011;40747;49.480;8.658;2024-03-22T05:05:01;6.63;;;4.10;;
54853;SDS011;40747;49.480;8.658;2024-03-22T05:07:26;9.43;;;3.63;;
54853;SDS011;40747;49.480;8.658;2024-03-22T05:09:52;6.40;;;3.25;;
54853;SDS011;40747;49.480;8.658;2024-03-22T05:12:17;9.35;;;3.95;;
54853;SDS011;40747;49.480;8.658;2024-03-22T05:14:43;9.70;;;3.60;;
54853;SDS011;40747;49.480;8.658;2024-03-22T05:17:08;7.03;;;3.75;;
54853;SDS011;40747;49.480;8.658;2024-03-22T05:19:33;9.10;;;4.38;;
54853;SDS011;40747;49.480;8.658;2024-03-22T05:21:59;6.60;;;3.60;;
54853;SDS011;40747;49.480;8.658;2024-03-22T05:24:25;4.75;;;3.00;;
54853;SDS011;40747;49.480;8.658;2024-03-22T05:26:50;7.15;;;4.25;;
54853;SDS011;40747;49.480;8.658;2024-03-22T05:29:16;7.03;;;4.03;;
54853;SDS011;40747;49.480;8.658;2024-03-22T05:31:48;5.97;;;2.92;;
54853;SDS011;40747;49.480;8.658;2024-03-22T05:34:16;7.60;;;3.45;;
54853;SDS011;40747;49.480;8.658;2024-03-22T05:36:41;7.80;;;3.47;;
54853;SDS011;40747;49.480;8.658;2024-03-22T05:39:06;6.10;;;3.65;;
54853;SDS011;40747;49.480;8.658;2024-03-22T05:41:32;8.55;;;4.22;;
54853;SDS011;40747;49.480;8.658;2024-03-22T05:43:57;9.73;;;3.75;;
54853;SDS011;40747;49.480;8.658;2024-03-22T05:46:22;6.80;;;2.42;;
54853;SDS011;40747;49.480;8.658;2024-03-22T05:48:48;4.53;;;3.22;;
54853;SDS011;40747;49.480;8.658;2024-03-22T05:51:15;15.50;;;8.02;;
54853;SDS011;40747;49.480;8.658;2024-03-22T05:53:41;12.60;;;6.20;;
54853;SDS011;40747;49.480;8.658;2024-03-22T05:56:07;8.98;;;4.72;;
54853;SDS011;40747;49.480;8.658;2024-03-22T05:58:33;9.77;;;4.43;;
54853;SDS011;40747;49.480;8.658;2024-03-22T06:00:58;5.25;;;3.17;;
54853;SDS011;40747;49.480;8.658;2024-03-22T06:03:23;9.68;;;3.40;;
54853;SDS011;40747;49.480;8.658;2024-03-22T06:05:49;8.90;;;3.80;;
54853;SDS011;40747;49.480;8.658;2024-03-22T06:08:14;8.82;;;4.28;;
54853;SDS011;40747;49.480;8.658;2024-03-22T06:10:44;7.43;;;3.92;;
54853;SDS011;40747;49.480;8.658;2024-03-22T06:13:10;6.72;;;3.60;;
54853;SDS011;40747;49.480;8.658;2024-03-22T06:15:35;6.10;;;3.17;;
54853;SDS011;40747;49.480;8.658;2024-03-22T06:18:00;8.10;;;4.03;;
54853;SDS011;40747;49.480;8.658;2024-03-22T06:20:26;7.88;;;4.57;;
54853;SDS011;40747;49.480;8.658;2024-03-22T06:22:51;6.68;;;4.03;;
54853;SDS011;40747;49.480;8.658;2024-03-22T06:25:16;8.57;;;3.63;;
54853;SDS011;40747;49.480;8.658;2024-03-22T06:27:41;8.57;;;4.57;;
54853;SDS011;40747;49.480;8.658;2024-03-22T06:30:07;7.65;;;4.03;;
54853;SDS011;40747;49.480;8.658;2024-03-22T06:32:32;8.60;;;5.07;;
54853;SDS011;40747;49.480;8.658;2024-03-22T06:34:58;5.03;;;4.03;;
54853;SDS011;40747;49.480;8.658;2024-03-22T06:37:23;4.18;;;3.67;;
54853;SDS011;40747;49.480;8.658;2024-03-22T06:39:48;5.97;;;3.85;;
54853;SDS011;40747;49.480;8.658;2024-03-22T06:42:13;10.00;;;5.35;;
54853;SDS011;40747;49.480;8.658;2024-03-22T06:44:39;12.48;;;8.40;;
54853;SDS011;40747;49.480;8.658;2024-03-22T06:47:04;14.82;;;9.05;;
54853;SDS011;40747;49.480;8.658;2024-03-22T06:49:29;15.35;;;8.70;;
54853;SDS011;40747;49.480;8.658;2024-03-22T06:51:54;17.55;;;10.38;;
54853;SDS011;40747;49.480;8.658;2024-03-22T06:54:20;23.13;;;13.50;;
54853;SDS011;40747;49.480;8.658;2024-03-22T06:56:45;33.22;;;17.27;;
54853;SDS011;40747;49.480;8.658;2024-03-22T06:59:10;21.02;;;10.57;;
54853;SDS011;40747;49.480;8.658;2024-03-22T07:01:35;26.40;;;12.43;;
54853;SDS011;40747;49.480;8.658;2024-03-22T07:04:01;18.90;;;10.85;;
54853;SDS011;40747;49.480;8.658;2024-03-22T07:06:26;11.43;;;5.68;;
54853;SDS011;40747;49.480;8.658;2024-03-22T07:08:51;9.43;;;5.53;;
54853;SDS011;40747;49.480;8.658;2024-03-22T07:11:16;12.85;;;6.15;;
54853;SDS011;40747;49.480;8.658;2024-03-22T07:13:42;8.23;;;4.65;;
54853;SDS011;40747;49.480;8.658;2024-03-22T07:16:08;12.00;;;5.63;;
54853;SDS011;40747;49.480;8.658;2024-03-22T07:18:33;9.10;;;5.35;;
54853;SDS011;40747;49.480;8.658;2024-03-22T07:20:59;8.30;;;4.68;;
54853;SDS011;40747;49.480;8.658;2024-03-22T07:23:26;7.82;;;4.57;;
54853;SDS011;40747;49.480;8.658;2024-03-22T07:25:51;13.27;;;5.28;;
54853;SDS011;40747;49.480;8.658;2024-03-22T07:28:17;16.23;;;5.43;;
54853;SDS011;40747;49.480;8.658;2024-03-22T07:30:42;7.38;;;4.28;;
54853;SDS011;40747;49.480;8.658;2024-03-22T07:33:07;8.85;;;4.90;;
54853;SDS011;40747;49.480;8.658;2024-03-22T07:35:35;8.57;;;4.60;;
54853;SDS011;40747;49.480;8.658;2024-03-22T07:38:00;6.97;;;3.63;;
54853;SDS011;40747;49.480;8.658;2024-03-22T07:40:25;7.95;;;4.75;;
54853;SDS011;40747;49.480;8.658;2024-03-22T07:42:51;8.50;;;4.25;;
54853;SDS011;40747;49.480;8.658;2024-03-22T07:45:16;11.77;;;5.53;;
54853;SDS011;40747;49.480;8.658;2024-03-22T07:47:41;9.52;;;5.05;;
54853;SDS011;40747;49.480;8.658;2024-03-22T07:50:08;11.48;;;4.05;;
54853;SDS011;40747;49.480;8.658;2024-03-22T07:52:34;7.15;;;4.50;;
54853;SDS011;40747;49.480;8.658;2024-03-22T07:54:59;8.90;;;4.43;;
54853;SDS011;40747;49.480;8.658;2024-03-22T07:57:27;9.15;;;3.95;;
54853;SDS011;40747;49.480;8.658;2024-03-22T07:59:52;7.30;;;4.10;;
54853;SDS011;40747;49.480;8.658;2024-03-22T08:02:17;7.45;;;4.78;;
54853;SDS011;40747;49.480;8.658;2024-03-22T08:04:42;8.13;;;3.38;;
54853;SDS011;40747;49.480;8.658;2024-03-22T08:07:08;10.80;;;4.43;;
54853;SDS011;40747;49.480;8.658;2024-03-22T08:09:33;9.20;;;4.18;;
54853;SDS011;40747;49.480;8.658;2024-03-22T08:11:59;6.10;;;3.92;;
54853;SDS011;40747;49.480;8.658;2024-03-22T08:14:24;5.90;;;4.00;;
54853;SDS011;40747;49.480;8.658;2024-03-22T08:16:49;7.57;;;3.72;;
54853;SDS011;40747;49.480;8.658;2024-03-22T08:19:15;9.98;;;4.05;;
54853;SDS011;40747;49.480;8.658;2024-03-22T08:21:41;12.20;;;5.15;;
54853;SDS011;40747;49.480;8.658;2024-03-22T08:24:06;6.43;;;3.72;;
54853;SDS011;40747;49.480;8.658;2024-03-22T08:26:31;7.22;;;3.75;;
54853;SDS011;40747;49.480;8.658;2024-03-22T08:28:57;12.77;;;3.85;;
54853;SDS011;40747;49.480;8.658;2024-03-22T08:31:22;6.05;;;3.67;;
54853;SDS011;40747;49.480;8.658;2024-03-22T08:33:50;7.00;;;3.53;;
54853;SDS011;40747;49.480;8.658;2024-03-22T08:36:16;11.95;;;4.15;;
54853;SDS011;40747;49.480;8.658;2024-03-22T08:38:41;7.28;;;3.80;;
54853;SDS011;40747;49.480;8.658;2024-03-22T08:41:07;9.68;;;4.65;;
54853;SDS011;40747;49.480;8.658;2024-03-22T08:43:32;6.57;;;3.97;;
54853;SDS011;40747;49.480;8.658;2024-03-22T08:45:58;8.38;;;3.63;;
54853;SDS011;40747;49.480;8.658;2024-03-22T08:48:23;7.50;;;4.07;;
54853;SDS011;40747;49.480;8.658;2024-03-22T08:50:48;6.20;;;3.22;;
54853;SDS011;40747;49.480;8.658;2024-03-22T08:53:13;6.57;;;3.50;;
54853;SDS011;40747;49.480;8.658;2024-03-22T08:55:44;6.15;;;3.28;;
54853;SDS011;40747;49.480;8.658;2024-03-22T08:58:11;6.93;;;4.05;;
54853;SDS011;40747;49.480;8.658;2024-03-22T09:00:37;12.57;;;5.03;;
54853;SDS011;40747;49.480;8.658;2024-03-22T09:03:02;8.82;;;5.07;;
54853;SDS011;40747;49.480;8.658;2024-03-22T09:05:28;7.78;;;4.28;;
54853;SDS011;40747;49.480;8.658;2024-03-22T09:07:53;9.93;;;4.30;;
54853;SDS011;40747;49.480;8.658;2024-03-22T09:10:20;8.38;;;4.85;;
54853;SDS011;40747;49.480;8.658;2024-03-22T09:12:46;13.18;;;6.10;;
54853;SDS011;40747;49.480;8.658;2024-03-22T09:15:11;19.02;;;8.02;;
54853;SDS011;40747;49.480;8.658;2024-03-22T09:17:36;10.88;;;3.35;;
54853;SDS011;40747;49.480;8.658;2024-03-22T09:20:01;5.50;;;3.53;;
54853;SDS011;40747;49.480;8.658;2024-03-22T09:22:29;4.32;;;3.50;;
54853;SDS011;40747;49.480;8.658;2024-03-22T09:24:54;7.95;;;4.60;;
54853;SDS011;40747;49.480;8.658;2024-03-22T09:27:19;5.13;;;3.08;;
54853;SDS011;40747;49.480;8.658;2024-03-22T09:29:45;8.18;;;3.65;;
54853;SDS011;40747;49.480;8.658;2024-03-22T09:32:10;4.32;;;3.08;;
54853;SDS011;40747;49.480;8.658;2024-03-22T09:34:35;6.25;;;2.65;;
54853;SDS011;40747;49.480;8.658;2024-03-22T09:37:01;7.55;;;3.28;;
54853;SDS011;40747;49.480;8.658;2024-03-22T09:39:26;7.35;;;3.90;;
54853;SDS011;40747;49.480;8.658;2024-03-22T09:41:53;8.93;;;4.38;;
54853;SDS011;40747;49.480;8.658;2024-03-22T09:44:21;5.70;;;3.88;;
54853;SDS011;40747;49.480;8.658;2024-03-22T09:46:48;15.32;;;3.67;;
54853;SDS011;40747;49.480;8.658;2024-03-22T09:49:15;7.13;;;3.88;;
54853;SDS011;40747;49.480;8.658;2024-03-22T09:51:41;6.57;;;3.42;;
54853;SDS011;40747;49.480;8.658;2024-03-22T09:54:11;6.47;;;3.10;;
54853;SDS011;40747;49.480;8.658;2024-03-22T09:56:39;9.45;;;2.92;;
54853;SDS011;40747;49.480;8.658;2024-03-22T09:59:05;5.40;;;3.05;;
54853;SDS011;40747;49.480;8.658;2024-03-22T10:01:32;5.18;;;3.40;;
54853;SDS011;40747;49.480;8.658;2024-03-22T10:04:01;8.43;;;3.80;;
54853;SDS011;40747;49.480;8.658;2024-03-22T10:06:26;6.55;;;4.07;;
54853;SDS011;40747;49.480;8.658;2024-03-22T10:08:52;9.10;;;3.85;;
54853;SDS011;40747;49.480;8.658;2024-03-22T10:11:18;5.78;;;3.58;;
54853;SDS011;40747;49.480;8.658;2024-03-22T10:13:43;10.40;;;3.42;;
54853;SDS011;40747;49.480;8.658;2024-03-22T10:16:09;4.00;;;3.00;;
54853;SDS011;40747;49.480;8.658;2024-03-22T10:18:34;8.85;;;3.90;;
54853;SDS011;40747;49.480;8.658;2024-03-22T10:21:06;6.10;;;2.90;;
54853;SDS011;40747;49.480;8.658;2024-03-22T10:23:31;7.22;;;3.53;;
54853;SDS011;40747;49.480;8.658;2024-03-22T10:25:57;6.85;;;3.72;;
54853;SDS011;40747;49.480;8.658;2024-03-22T10:28:23;5.95;;;3.83;;
54853;SDS011;40747;49.480;8.658;2024-03-22T10:30:51;5.70;;;3.50;;
54853;SDS011;40747;49.480;8.658;2024-03-22T10:33:20;6.03;;;3.10;;
54853;SDS011;40747;49.480;8.658;2024-03-22T10:35:51;9.57;;;4.70;;
54853;SDS011;40747;49.480;8.658;2024-03-22T10:38:18;8.30;;;3.80;;
54853;SDS011;40747;49.480;8.658;2024-03-22T10:40:44;5.22;;;3.53;;
54853;SDS011;40747;49.480;8.658;2024-03-22T10:43:11;6.05;;;4.10;;
54853;SDS011;40747;49.480;8.658;2024-03-22T10:45:38;8.95;;;3.85;;
54853;SDS011;40747;49.480;8.658;2024-03-22T10:48:06;5.43;;;3.50;;
54853;SDS011;40747;49.480;8.658;2024-03-22T10:50:39;6.47;;;3.88;;
54853;SDS011;40747;49.480;8.658;2024-03-22T10:53:07;12.27;;;4.32;;
54853;SDS011;40747;49.480;8.658;2024-03-22T10:55:38;7.25;;;3.88;;
54853;SDS011;40747;49.480;8.658;2024-03-22T10:58:07;5.03;;;3.42;;
54853;SDS011;40747;49.480;8.658;2024-03-22T11:00:41;5.00;;;3.43;;
54853;SDS011;40747;49.480;8.658;2024-03-22T11:03:08;9.25;;;3.25;;
54853;SDS011;40747;49.480;8.658;2024-03-22T11:05:33;7.32;;;3.47;;
54853;SDS011;40747;49.480;8.658;2024-03-22T11:07:59;3.83;;;2.95;;
54853;SDS011;40747;49.480;8.658;2024-03-22T11:10:31;6.18;;;3.40;;
54853;SDS011;40747;49.480;8.658;2024-03-22T11:13:03;13.45;;;4.28;;
54853;SDS011;40747;49.480;8.658;2024-03-22T11:15:29;6.28;;;3.80;;
54853;SDS011;40747;49.480;8.658;2024-03-22T11:17:55;7.03;;;3.03;;
54853;SDS011;40747;49.480;8.658;2024-03-22T11:20:21;8.25;;;3.40;;
54853;SDS011;40747;49.480;8.658;2024-03-22T11:22:47;6.65;;;3.65;;
54853;SDS011;40747;49.480;8.658;2024-03-22T11:25:12;7.68;;;3.33;;
54853;SDS011;40747;49.480;8.658;2024-03-22T11:27:38;6.05;;;3.42;;
54853;SDS011;40747;49.480;8.658;2024-03-22T11:30:03;10.18;;;4.28;;
54853;SDS011;40747;49.480;8.658;2024-03-22T11:32:29;5.68;;;2.97;;
54853;SDS011;40747;49.480;8.658;2024-03-22T11:34:55;10.02;;;3.67;;
54853;SDS011;40747;49.480;8.658;2024-03-22T11:37:20;6.28;;;3.28;;
54853;SDS011;40747;49.480;8.658;2024-03-22T11:39:46;5.50;;;2.72;;
54853;SDS011;40747;49.480;8.658;2024-03-22T11:42:11;3.80;;;2.30;;
54853;SDS011;40747;49.480;8.658;2024-03-22T11:44:37;3.53;;;2.50;;
54853;SDS011;40747;49.480;8.658;2024-03-22T11:47:04;4.35;;;2.42;;
54853;SDS011;40747;49.480;8.658;2024-03-22T11:49:30;3.70;;;2.05;;
54853;SDS011;40747;49.480;8.658;2024-03-22T11:51:55;5.28;;;2.40;;
54853;SDS011;40747;49.480;8.658;2024-03-22T11:54:21;3.35;;;2.20;;
54853;SDS011;40747;49.480;8.658;2024-03-22T11:56:47;2.45;;;1.70;;
54853;SDS011;40747;49.480;8.658;2024-03-22T11:59:12;2.97;;;1.95;;
54853;SDS011;40747;49.480;8.658;2024-03-22T12:01:38;4.47;;;2.20;;
54853;SDS011;40747;49.480;8.658;2024-03-22T12:04:04;3.67;;;1.70;;
54853;SDS011;40747;49.480;8.658;2024-03-22T12:06:29;4.60;;;2.53;;
54853;SDS011;40747;49.480;8.658;2024-03-22T12:08:54;3.90;;;2.40;;
54853;SDS011;40747;49.480;8.658;2024-03-22T12:11:20;6.68;;;2.40;;
54853;SDS011;40747;49.480;8.658;2024-03-22T12:13:46;3.47;;;2.55;;
54853;SDS011;40747;49.480;8.658;2024-03-22T12:16:11;4.25;;;2.28;;
54853;SDS011;40747;49.480;8.658;2024-03-22T12:18:36;3.58;;;2.45;;
54853;SDS011;40747;49.480;8.658;2024-03-22T12:21:02;3.50;;;1.90;;
54853;SDS011;40747;49.480;8.658;2024-03-22T12:23:27;3.97;;;2.67;;
54853;SDS011;40747;49.480;8.658;2024-03-22T12:25:53;3.30;;;2.25;;
54853;SDS011;40747;49.480;8.658;2024-03-22T12:28:20;4.28;;;1.95;;
54853;SDS011;40747;49.480;8.658;2024-03-22T12:30:46;4.85;;;2.05;;
54853;SDS011;40747;49.480;8.658;2024-03-22T12:33:11;3.00;;;2.08;;
54853;SDS011;40747;49.480;8.658;2024-03-22T12:35:37;4.82;;;3.00;;
54853;SDS011;40747;49.480;8.658;2024-03-22T12:38:04;3.65;;;2.42;;
54853;SDS011;40747;49.480;8.658;2024-03-22T12:40:29;4.50;;;2.67;;
54853;SDS011;40747;49.480;8.658;2024-03-22T12:43:00;4.10;;;2.70;;
54853;SDS011;40747;49.480;8.658;2024-03-22T12:45:26;6.07;;;2.88;;
54853;SDS011;40747;49.480;8.658;2024-03-22T12:47:52;7.60;;;2.72;;
54853;SDS011;40747;49.480;8.658;2024-03-22T12:50:17;4.25;;;2.22;;
54853;SDS011;40747;49.480;8.658;2024-03-22T12:52:43;3.50;;;2.40;;
54853;SDS011;40747;49.480;8.658;2024-03-22T12:55:09;4.63;;;2.63;;
54853;SDS011;40747;49.480;8.658;2024-03-22T12:57:34;4.00;;;2.00;;
54853;SDS011;40747;49.480;8.658;2024-03-22T13:00:00;3.45;;;2.17;;
54853;SDS011;40747;49.480;8.658;2024-03-22T13:02:26;3.80;;;1.90;;
54853;SDS011;40747;49.480;8.658;2024-03-22T13:04:51;4.32;;;2.50;;
54853;SDS011;40747;49.480;8.658;2024-03-22T13:07:18;6.13;;;2.92;;
54853;SDS011;40747;49.480;8.658;2024-03-22T13:09:44;4.78;;;2.97;;
54853;SDS011;40747;49.480;8.658;2024-03-22T13:12:10;7.30;;;2.22;;
54853;SDS011;40747;49.480;8.658;2024-03-22T13:14:35;4.18;;;2.50;;
54853;SDS011;40747;49.480;8.658;2024-03-22T13:17:00;7.40;;;3.90;;
54853;SDS011;40747;49.480;8.658;2024-03-22T13:19:26;6.20;;;3.40;;
54853;SDS011;40747;49.480;8.658;2024-03-22T13:21:51;6.32;;;3.60;;
54853;SDS011;40747;49.480;8.658;2024-03-22T13:24:16;5.38;;;3.28;;
54853;SDS011;40747;49.480;8.658;2024-03-22T13:26:42;4.60;;;2.95;;
54853;SDS011;40747;49.480;8.658;2024-03-22T13:29:07;3.70;;;2.72;;
54853;SDS011;40747;49.480;8.658;2024-03-22T13:31:32;5.47;;;2.97;;
54853;SDS011;40747;49.480;8.658;2024-03-22T13:33:58;3.85;;;2.63;;
54853;SDS011;40747;49.480;8.658;2024-03-22T13:36:23;6.22;;;3.17;;
54853;SDS011;40747;49.480;8.658;2024-03-22T13:38:50;4.03;;;2.55;;
54853;SDS011;40747;49.480;8.658;2024-03-22T13:41:16;7.10;;;3.40;;
54853;SDS011;40747;49.480;8.658;2024-03-22T13:43:41;5.95;;;2.85;;
54853;SDS011;40747;49.480;8.658;2024-03-22T13:46:09;3.80;;;2.67;;
54853;SDS011;40747;49.480;8.658;2024-03-22T13:48:37;5.43;;;2.53;;
54853;SDS011;40747;49.480;8.658;2024-03-22T13:51:02;3.67;;;2.53;;
54853;SDS011;40747;49.480;8.658;2024-03-22T13:53:28;4.45;;;2.90;;
54853;SDS011;40747;49.480;8.658;2024-03-22T13:55:53;6.57;;;2.97;;
54853;SDS011;40747;49.480;8.658;2024-03-22T13:58:19;4.00;;;2.72;;
54853;SDS011;40747;49.480;8.658;2024-03-22T14:00:44;3.70;;;2.67;;
54853;SDS011;40747;49.480;8.658;2024-03-22T14:03:10;4.70;;;2.47;;
54853;SDS011;40747;49.480;8.658;2024-03-22T14:05:35;5.05;;;2.08;;
54853;SDS011;40747;49.480;8.658;2024-03-22T14:08:00;3.97;;;2.50;;
54853;SDS011;40747;49.480;8.658;2024-03-22T14:10:26;4.13;;;2.30;;
54853;SDS011;40747;49.480;8.658;2024-03-22T14:12:56;4.43;;;2.60;;
54853;SDS011;40747;49.480;8.658;2024-03-22T14:15:21;4.30;;;2.90;;
54853;SDS011;40747;49.480;8.658;2024-03-22T14:17:49;4.65;;;2.53;;
54853;SDS011;40747;49.480;8.658;2024-03-22T14:20:15;7.20;;;2.72;;
54853;SDS011;40747;49.480;8.658;2024-03-22T14:22:41;4.80;;;2.85;;
54853;SDS011;40747;49.480;8.658;2024-03-22T14:25:07;3.65;;;2.60;;
54853;SDS011;40747;49.480;8.658;2024-03-22T14:27:33;3.75;;;2.78;;
54853;SDS011;40747;49.480;8.658;2024-03-22T14:30:02;4.75;;;3.30;;
54853;SDS011;40747;49.480;8.658;2024-03-22T14:32:31;4.35;;;2.67;;
54853;SDS011;40747;49.480;8.658;2024-03-22T14:34:59;7.07;;;2.72;;
54853;SDS011;40747;49.480;8.658;2024-03-22T14:37:25;6.60;;;2.83;;